createdAt,value
2018-10-18T00:02:23.657Z,6.13
2018-10-18T00:04:51.803Z,6.00
2018-10-18T00:07:19.978Z,6.57
2018-10-18T00:09:48.171Z,6.53
2018-10-18T00:12:16.416Z,6.70
2018-10-18T00:14:44.493Z,6.20
2018-10-18T00:17:18.005Z,6.13
2018-10-18T00:19:46.181Z,5.80
2018-10-18T00:22:14.341Z,6.20
2018-10-18T00:24:42.481Z,5.53
2018-10-18T00:27:10.639Z,6.20
2018-10-18T00:29:38.782Z,6.17
2018-10-18T00:32:07.372Z,5.10
2018-10-18T00:34:35.625Z,5.20
2018-10-18T00:37:03.768Z,5.60
2018-10-18T00:39:31.917Z,5.67
2018-10-18T00:42:00.122Z,6.00
2018-10-18T00:44:28.594Z,5.53
2018-10-18T00:46:56.792Z,5.60
2018-10-18T00:49:24.929Z,5.40
2018-10-18T00:51:53.103Z,4.83
2018-10-18T00:54:21.239Z,5.27
2018-10-18T00:56:49.496Z,5.60
2018-10-18T00:59:17.683Z,4.97
2018-10-18T01:01:45.867Z,5.10
2018-10-18T01:04:14.061Z,5.77
2018-10-18T01:06:42.260Z,5.40
2018-10-18T01:09:11.434Z,4.93
2018-10-18T01:11:39.578Z,5.20
2018-10-18T01:14:07.989Z,4.97
2018-10-18T01:16:36.118Z,4.60
2018-10-18T01:19:04.266Z,4.80
2018-10-18T01:21:32.423Z,5.03
2018-10-18T01:24:00.617Z,4.17
2018-10-18T01:26:28.737Z,5.10
2018-10-18T01:28:56.906Z,5.27
2018-10-18T01:31:25.045Z,4.37
2018-10-18T01:33:53.202Z,4.73
2018-10-18T01:36:21.348Z,4.60
2018-10-18T01:38:49.594Z,4.63
2018-10-18T01:41:17.888Z,4.57
2018-10-18T01:43:46.013Z,4.53
2018-10-18T01:46:14.147Z,4.80
2018-10-18T01:48:42.314Z,4.83
2018-10-18T01:51:10.456Z,5.40
2018-10-18T01:53:38.591Z,5.50
2018-10-18T01:56:06.800Z,5.57
2018-10-18T01:58:34.856Z,5.37
2018-10-18T02:01:03.002Z,5.23
2018-10-18T02:03:31.171Z,4.97
2018-10-18T02:05:59.351Z,5.10
2018-10-18T02:08:27.448Z,4.80
2018-10-18T02:10:55.564Z,5.03
2018-10-18T02:13:23.700Z,4.87
2018-10-18T02:15:51.963Z,4.50
2018-10-18T02:18:20.188Z,3.97
2018-10-18T02:20:48.316Z,4.20
2018-10-18T02:23:16.451Z,4.20
2018-10-18T02:25:44.586Z,4.27
2018-10-18T02:28:12.732Z,4.50
2018-10-18T02:30:40.875Z,4.17
2018-10-18T02:33:09.044Z,3.97
2018-10-18T02:35:37.172Z,3.93
2018-10-18T02:38:05.424Z,3.93
2018-10-18T02:40:33.669Z,3.73
2018-10-18T02:43:01.855Z,3.60
2018-10-18T02:45:30.025Z,3.80
2018-10-18T02:47:58.163Z,4.10
2018-10-18T02:50:26.281Z,3.60
2018-10-18T02:52:54.416Z,3.97
2018-10-18T02:55:22.571Z,3.60
2018-10-18T02:57:50.695Z,3.63
2018-10-18T03:00:18.881Z,3.40
2018-10-18T03:02:47.121Z,3.63
2018-10-18T03:05:15.233Z,3.50
2018-10-18T03:07:43.365Z,3.20
2018-10-18T03:10:11.584Z,3.03
2018-10-18T03:12:39.685Z,3.60
2018-10-18T03:15:08.803Z,3.10
2018-10-18T03:17:36.964Z,3.60
2018-10-18T03:20:05.131Z,3.37
2018-10-18T03:22:33.286Z,2.97
2018-10-18T03:25:01.417Z,3.80
2018-10-18T03:27:29.586Z,3.00
2018-10-18T03:29:57.699Z,3.30
2018-10-18T03:32:25.865Z,3.10
2018-10-18T03:34:53.976Z,2.80
2018-10-18T03:37:22.105Z,3.13
2018-10-18T03:39:50.304Z,2.90
2018-10-18T03:42:18.467Z,3.33
2018-10-18T03:44:46.669Z,3.20
2018-10-18T03:47:14.800Z,2.97
2018-10-18T03:49:42.928Z,3.20
2018-10-18T03:52:11.076Z,2.93
2018-10-18T03:54:39.195Z,2.93
2018-10-18T03:57:07.323Z,3.17
2018-10-18T03:59:35.493Z,3.00
2018-10-18T04:02:03.552Z,3.10
2018-10-18T04:04:31.692Z,3.47
2018-10-18T04:06:59.849Z,2.60
2018-10-18T04:09:28.000Z,2.90
2018-10-18T04:11:56.164Z,2.93
2018-10-18T04:14:24.279Z,2.57
2018-10-18T04:16:52.532Z,2.70
2018-10-18T04:19:20.683Z,2.70
2018-10-18T04:21:48.879Z,2.30
2018-10-18T04:24:17.143Z,2.93
2018-10-18T04:26:45.155Z,2.50
2018-10-18T04:29:13.288Z,2.67
2018-10-18T04:31:41.440Z,2.67
2018-10-18T04:34:09.590Z,2.93
2018-10-18T04:36:37.729Z,2.57
2018-10-18T04:39:08.395Z,2.80
2018-10-18T04:41:36.533Z,2.60
2018-10-18T04:44:04.720Z,2.83
2018-10-18T04:46:32.866Z,2.77
2018-10-18T04:49:01.086Z,2.70
2018-10-18T04:51:29.139Z,2.57
2018-10-18T04:53:57.246Z,2.37
2018-10-18T04:56:25.413Z,2.80
2018-10-18T04:58:53.542Z,2.40
2018-10-18T05:01:21.794Z,2.90
2018-10-18T05:03:49.812Z,2.70
2018-10-18T05:06:17.975Z,2.60
2018-10-18T05:08:46.145Z,2.70
2018-10-18T05:11:14.319Z,2.60
2018-10-18T05:13:42.380Z,2.50
2018-10-18T05:16:11.228Z,2.47
2018-10-18T05:18:39.369Z,2.50
2018-10-18T05:21:07.553Z,2.30
2018-10-18T05:23:35.743Z,2.40
2018-10-18T05:26:04.377Z,2.70
2018-10-18T05:28:32.500Z,2.23
2018-10-18T05:31:00.688Z,2.47
2018-10-18T05:33:28.752Z,2.40
2018-10-18T05:35:56.884Z,2.43
2018-10-18T05:38:25.024Z,2.70
2018-10-18T05:40:53.139Z,2.50
2018-10-18T05:43:23.520Z,2.50
2018-10-18T05:45:52.490Z,2.37
2018-10-18T05:48:20.612Z,2.20
2018-10-18T05:50:48.770Z,2.20
2018-10-18T05:53:17.107Z,2.10
2018-10-18T05:55:45.101Z,2.60
2018-10-18T05:58:13.272Z,2.40
2018-10-18T06:00:41.472Z,2.07
2018-10-18T06:03:09.579Z,2.20
2018-10-18T06:05:37.712Z,2.47
2018-10-18T06:08:05.864Z,2.50
2018-10-18T06:10:45.408Z,2.27
2018-10-18T06:13:13.605Z,2.30
2018-10-18T06:15:41.683Z,2.73
2018-10-18T06:18:09.884Z,2.23
2018-10-18T06:20:38.046Z,2.40
2018-10-18T06:23:06.435Z,2.57
2018-10-18T06:25:34.508Z,2.93
2018-10-18T06:28:02.775Z,2.60
2018-10-18T06:30:30.887Z,2.33
2018-10-18T06:32:59.076Z,2.30
2018-10-18T06:35:27.206Z,2.70
2018-10-18T06:37:55.339Z,2.57
2018-10-18T06:40:24.360Z,2.40
2018-10-18T06:42:52.490Z,2.77
2018-10-18T06:45:20.664Z,2.40
2018-10-18T06:47:49.001Z,2.43
2018-10-18T06:50:18.249Z,2.43
2018-10-18T06:52:46.360Z,2.20
2018-10-18T06:55:14.610Z,2.40
2018-10-18T06:57:43.273Z,2.03
2018-10-18T07:00:17.706Z,2.30
2018-10-18T07:02:45.948Z,2.33
2018-10-18T07:05:14.948Z,2.17
2018-10-18T07:07:43.575Z,2.17
2018-10-18T07:10:11.716Z,2.30
2018-10-18T07:12:40.288Z,2.13
2018-10-18T07:15:09.296Z,2.40
2018-10-18T07:17:38.444Z,2.30
2018-10-18T07:20:07.080Z,2.13
2018-10-18T07:22:35.613Z,2.40
2018-10-18T07:25:04.302Z,2.37
2018-10-18T07:27:32.435Z,2.20
2018-10-18T07:30:00.605Z,2.13
2018-10-18T07:32:28.768Z,2.47
2018-10-18T07:34:57.240Z,2.23
2018-10-18T07:37:25.410Z,2.30
2018-10-18T07:39:53.532Z,2.40
2018-10-18T07:42:21.648Z,2.50
2018-10-18T07:44:49.796Z,2.20
2018-10-18T07:47:17.953Z,2.93
2018-10-18T07:49:46.220Z,2.20
2018-10-18T07:52:14.324Z,2.20
2018-10-18T07:54:42.472Z,2.27
2018-10-18T07:57:10.580Z,2.00
2018-10-18T07:59:38.735Z,2.00
2018-10-18T08:02:06.972Z,2.00
2018-10-18T08:04:35.272Z,2.27
2018-10-18T08:07:03.457Z,2.33
2018-10-18T08:09:31.569Z,2.13
2018-10-18T08:11:59.720Z,2.10
2018-10-18T08:14:27.852Z,1.90
2018-10-18T08:16:56.129Z,2.10
2018-10-18T08:19:24.218Z,1.80
2018-10-18T08:21:52.401Z,2.00
2018-10-18T08:24:20.538Z,2.10
2018-10-18T08:26:48.644Z,2.00
2018-10-18T08:29:16.751Z,1.83
2018-10-18T08:31:44.895Z,1.80
2018-10-18T08:34:13.061Z,2.00
2018-10-18T08:36:41.204Z,2.03
2018-10-18T08:39:10.516Z,1.90
2018-10-18T08:41:38.627Z,2.07
2018-10-18T08:44:06.826Z,1.60
2018-10-18T08:46:34.954Z,1.93
2018-10-18T08:49:03.159Z,1.93
2018-10-18T08:51:31.348Z,2.17
2018-10-18T08:53:59.504Z,1.50
2018-10-18T08:56:27.619Z,1.97
2018-10-18T08:58:55.813Z,1.80
2018-10-18T09:01:23.945Z,1.80
2018-10-18T09:03:52.068Z,1.60
2018-10-18T09:06:20.283Z,1.83
2018-10-18T09:08:48.387Z,1.63
2018-10-18T09:11:16.532Z,1.90
2018-10-18T09:13:44.716Z,1.50
2018-10-18T09:16:12.950Z,1.93
2018-10-18T09:18:41.096Z,1.77
2018-10-18T09:21:09.220Z,1.60
2018-10-18T09:23:37.473Z,1.80
2018-10-18T09:26:05.642Z,1.80
2018-10-18T09:28:33.787Z,1.73
2018-10-18T09:31:01.983Z,2.07
2018-10-18T09:33:30.113Z,1.90
2018-10-18T09:35:58.253Z,1.73
2018-10-18T09:38:26.489Z,2.00
2018-10-18T09:40:54.629Z,2.20
2018-10-18T09:43:22.764Z,1.80
2018-10-18T09:45:50.881Z,2.00
2018-10-18T09:48:19.033Z,2.17
2018-10-18T09:53:21.780Z,1.83
2018-10-18T09:55:49.967Z,2.10
2018-10-18T09:58:18.068Z,1.80
2018-10-18T10:00:51.458Z,2.07
2018-10-18T10:03:19.974Z,1.77
2018-10-18T10:05:48.133Z,1.97
2018-10-18T10:08:16.410Z,1.97
2018-10-18T10:10:44.540Z,2.00
2018-10-18T10:13:12.753Z,1.90
2018-10-18T10:15:40.823Z,1.90
2018-10-18T10:18:09.041Z,2.27
2018-10-18T10:20:37.364Z,2.10
2018-10-18T10:23:05.588Z,2.10
2018-10-18T10:25:33.781Z,1.87
2018-10-18T10:28:01.930Z,2.17
2018-10-18T10:30:30.119Z,1.67
2018-10-18T10:32:58.340Z,1.70
2018-10-18T10:35:26.359Z,1.90
2018-10-18T10:37:54.511Z,2.10
2018-10-18T10:40:22.640Z,1.80
2018-10-18T10:42:50.867Z,1.83
2018-10-18T10:45:19.018Z,1.80
2018-10-18T10:47:47.096Z,1.63
2018-10-18T10:50:15.413Z,1.70
2018-10-18T10:52:43.422Z,1.90
2018-10-18T10:55:11.984Z,1.80
2018-10-18T10:57:40.182Z,1.50
2018-10-18T11:00:08.481Z,1.70
2018-10-18T11:02:36.824Z,1.90
2018-10-18T11:05:05.620Z,1.80
2018-10-18T11:07:33.787Z,1.70
2018-10-18T11:10:02.005Z,1.50
2018-10-18T11:12:30.225Z,1.70
2018-10-18T11:14:58.379Z,1.43
2018-10-18T11:17:26.555Z,2.10
2018-10-18T11:19:54.924Z,1.93
2018-10-18T11:22:23.350Z,1.90
2018-10-18T11:24:51.713Z,1.40
2018-10-18T11:27:19.805Z,1.60
2018-10-18T11:29:47.972Z,1.37
2018-10-18T11:32:16.192Z,1.20
2018-10-18T11:34:44.235Z,1.27
2018-10-18T11:37:12.323Z,1.70
2018-10-18T11:39:40.436Z,1.40
2018-10-18T11:42:08.618Z,1.70
2018-10-18T11:44:40.607Z,1.40
2018-10-18T11:47:09.967Z,1.40
2018-10-18T11:49:38.388Z,1.30
2018-10-18T11:52:06.547Z,1.57
2018-10-18T11:54:34.600Z,1.37
2018-10-18T11:57:03.768Z,1.60
2018-10-18T11:59:31.888Z,1.40
2018-10-18T12:02:00.001Z,1.70
2018-10-18T12:04:28.380Z,1.83
2018-10-18T12:06:56.502Z,1.57
2018-10-18T12:09:24.575Z,1.43
2018-10-18T12:11:52.667Z,1.60
2018-10-18T12:14:20.762Z,1.67
2018-10-18T12:16:48.877Z,1.20
2018-10-18T12:19:17.174Z,1.80
2018-10-18T12:21:45.280Z,1.80
2018-10-18T12:24:13.367Z,1.47
2018-10-18T12:26:41.542Z,1.43
2018-10-18T12:29:09.678Z,1.47
2018-10-18T12:31:38.983Z,1.93
2018-10-18T12:34:07.221Z,1.57
2018-10-18T12:36:35.492Z,1.70
2018-10-18T12:39:04.302Z,1.77
2018-10-18T12:41:32.512Z,1.23
2018-10-18T12:44:00.550Z,1.70
2018-10-18T12:46:28.643Z,1.50
2018-10-18T12:48:56.756Z,1.40
2018-10-18T12:51:24.884Z,2.10
2018-10-18T12:53:52.992Z,1.50
2018-10-18T12:56:21.044Z,1.40
2018-10-18T12:58:49.163Z,1.20
2018-10-18T13:01:17.294Z,1.70
2018-10-18T13:03:45.376Z,1.50
2018-10-18T13:06:13.574Z,1.33
2018-10-18T13:08:41.661Z,1.50
2018-10-18T13:11:09.740Z,1.50
2018-10-18T13:13:37.903Z,1.50
2018-10-18T13:16:06.008Z,1.60
2018-10-18T13:18:34.107Z,1.50
2018-10-18T13:21:02.215Z,1.20
2018-10-18T13:23:30.309Z,1.20
2018-10-18T13:25:58.517Z,1.40
2018-10-18T13:28:26.628Z,1.40
2018-10-18T13:30:54.717Z,1.50
2018-10-18T13:33:22.809Z,1.27
2018-10-18T13:35:50.884Z,1.23
2018-10-18T13:38:18.984Z,1.50
2018-10-18T13:40:47.138Z,1.10
2018-10-18T13:43:15.190Z,1.67
2018-10-18T13:45:43.271Z,1.10
2018-10-18T13:48:11.383Z,1.60
2018-10-18T13:50:39.477Z,1.00
2018-10-18T13:53:07.580Z,1.40
2018-10-18T13:55:35.692Z,1.53
2018-10-18T13:58:03.802Z,1.10
2018-10-18T14:00:32.192Z,1.23
2018-10-18T14:03:00.320Z,1.60
2018-10-18T14:05:28.664Z,1.50
2018-10-18T14:07:57.248Z,1.60
2018-10-18T14:10:25.348Z,1.40
2018-10-18T14:12:53.892Z,1.50
2018-10-18T14:15:22.004Z,1.30
2018-10-18T14:17:50.240Z,1.30
2018-10-18T14:20:18.491Z,2.17
2018-10-18T14:22:46.508Z,1.40
2018-10-18T14:25:14.603Z,1.20
2018-10-18T14:27:42.719Z,1.33
2018-10-18T14:30:11.844Z,1.50
2018-10-18T14:32:39.852Z,1.30
2018-10-18T14:35:09.206Z,1.30
2018-10-18T14:37:37.347Z,1.50
2018-10-18T14:40:06.016Z,1.70
2018-10-18T14:42:34.115Z,1.13
2018-10-18T14:45:02.269Z,1.20
2018-10-18T14:47:30.530Z,1.33
2018-10-18T14:49:58.722Z,1.40
2018-10-18T14:52:26.747Z,1.30
2018-10-18T14:54:54.871Z,1.50
2018-10-18T14:57:22.987Z,1.20
2018-10-18T14:59:51.104Z,1.20
2018-10-18T15:02:19.362Z,1.20
2018-10-18T15:04:47.428Z,1.33
2018-10-18T15:07:15.536Z,1.20
2018-10-18T15:09:43.668Z,1.10
2018-10-18T15:12:11.755Z,1.23
2018-10-18T15:14:39.886Z,1.50
2018-10-18T15:17:08.350Z,1.90
2018-10-18T15:19:36.411Z,1.63
2018-10-18T15:22:06.136Z,1.83
2018-10-18T15:24:34.737Z,1.60
2018-10-18T15:27:03.015Z,1.70
2018-10-18T15:29:30.973Z,1.93
2018-10-18T15:31:59.266Z,1.80
2018-10-18T15:34:27.362Z,2.00
2018-10-18T15:36:55.460Z,2.03
2018-10-18T15:39:23.685Z,2.10
2018-10-18T15:41:51.717Z,1.40
2018-10-18T15:44:20.002Z,1.43
2018-10-18T15:46:47.999Z,1.63
2018-10-18T15:49:17.205Z,2.03
2018-10-18T15:51:45.320Z,1.80
2018-10-18T15:54:13.664Z,1.40
2018-10-18T15:56:41.631Z,1.53
2018-10-18T15:59:12.176Z,1.40
2018-10-18T16:01:40.300Z,1.60
2018-10-18T16:04:08.372Z,9.40
2018-10-18T16:06:40.203Z,2.77
2018-10-18T16:09:12.352Z,3.03
2018-10-18T16:11:40.675Z,1.97
2018-10-18T16:14:08.939Z,1.53
2018-10-18T16:16:39.328Z,2.20
2018-10-18T16:19:07.455Z,1.90
2018-10-18T16:21:35.851Z,1.60
2018-10-18T16:24:04.069Z,1.80
2018-10-18T16:26:32.236Z,1.97
2018-10-18T16:29:00.555Z,1.80
2018-10-18T16:31:30.497Z,2.00
2018-10-18T16:33:58.681Z,1.53
2018-10-18T16:36:26.659Z,2.10
2018-10-18T16:38:54.744Z,2.77
2018-10-18T16:41:23.098Z,2.30
2018-10-18T16:43:50.946Z,2.00
2018-10-18T16:46:19.119Z,2.20
2018-10-18T16:48:47.160Z,2.13
2018-10-18T16:51:15.254Z,1.93
2018-10-18T16:53:43.431Z,2.53
2018-10-18T16:56:11.575Z,2.20
2018-10-18T16:58:39.619Z,3.23
2018-10-18T17:01:07.711Z,3.53
2018-10-18T17:03:35.798Z,3.40
2018-10-18T17:06:04.065Z,3.57
2018-10-18T17:08:32.047Z,3.50
2018-10-18T17:11:00.179Z,3.07
2018-10-18T17:13:28.265Z,3.50
2018-10-18T17:15:56.357Z,3.13
2018-10-18T17:18:24.511Z,3.93
2018-10-18T17:20:52.667Z,4.03
2018-10-18T17:23:20.724Z,3.70
2018-10-18T17:25:48.791Z,3.70
2018-10-18T17:28:16.879Z,3.60
2018-10-18T17:30:45.003Z,2.90
2018-10-18T17:33:13.079Z,4.50
2018-10-18T17:35:41.173Z,3.30
2018-10-18T17:38:09.359Z,3.80
2018-10-18T17:40:37.382Z,3.60
2018-10-18T17:43:05.425Z,4.07
2018-10-18T17:45:33.538Z,3.50
2018-10-18T17:48:01.613Z,3.13
2018-10-18T17:50:29.706Z,3.93
2018-10-18T17:52:57.829Z,3.30
2018-10-18T17:55:25.891Z,3.30
2018-10-18T17:57:54.004Z,3.73
2018-10-18T18:00:22.090Z,3.20
2018-10-18T18:02:50.139Z,3.73
2018-10-18T18:05:18.246Z,4.10
2018-10-18T18:07:46.322Z,3.50
2018-10-18T18:10:15.786Z,3.17
2018-10-18T18:12:43.857Z,3.47
2018-10-18T18:15:11.943Z,3.47
2018-10-18T18:17:40.476Z,3.70
2018-10-18T18:20:09.699Z,4.27
2018-10-18T18:22:37.902Z,4.47
2018-10-18T18:25:07.114Z,3.97
2018-10-18T18:27:35.194Z,4.07
2018-10-18T18:30:03.596Z,3.60
2018-10-18T18:32:31.719Z,4.67
2018-10-18T18:34:59.866Z,3.40
2018-10-18T18:37:28.004Z,3.13
2018-10-18T18:39:56.104Z,3.50
2018-10-18T18:42:24.200Z,3.13
2018-10-18T18:44:56.627Z,2.97
2018-10-18T18:47:24.759Z,3.30
2018-10-18T18:49:52.796Z,3.40
2018-10-18T18:52:20.987Z,3.10
2018-10-18T18:54:49.088Z,2.97
2018-10-18T18:57:17.172Z,2.63
2018-10-18T18:59:45.260Z,3.43
2018-10-18T19:02:13.391Z,3.33
2018-10-18T19:04:41.519Z,2.40
2018-10-18T19:07:09.629Z,2.50
2018-10-18T19:09:37.734Z,2.97
2018-10-18T19:12:05.944Z,2.20
2018-10-18T19:14:34.041Z,2.70
2018-10-18T19:17:02.131Z,2.40
2018-10-18T19:19:30.244Z,2.50
2018-10-18T19:21:58.357Z,2.70
2018-10-18T19:24:26.541Z,2.40
2018-10-18T19:26:54.619Z,2.80
2018-10-18T19:29:22.980Z,2.40
2018-10-18T19:31:51.667Z,2.23
2018-10-18T19:34:20.258Z,2.30
2018-10-18T19:36:48.387Z,2.27
2018-10-18T19:39:16.552Z,2.30
2018-10-18T19:41:44.671Z,2.70
2018-10-18T19:44:12.965Z,2.10
2018-10-18T19:46:41.198Z,2.17
2018-10-18T19:49:09.156Z,2.17
2018-10-18T19:51:37.274Z,2.40
2018-10-18T19:54:05.633Z,2.37
2018-10-18T19:56:33.817Z,2.23
2018-10-18T19:59:02.039Z,2.40
2018-10-18T20:01:30.180Z,3.13
2018-10-18T20:03:58.332Z,2.60
2018-10-18T20:06:26.408Z,2.33
2018-10-18T20:08:54.487Z,2.80
2018-10-18T20:11:22.577Z,2.97
2018-10-18T20:13:50.684Z,3.13
2018-10-18T20:16:18.794Z,2.73
2018-10-18T20:18:46.890Z,4.00
2018-10-18T20:21:15.069Z,3.73
2018-10-18T20:23:43.112Z,3.73
2018-10-18T20:26:11.499Z,3.20
2018-10-18T20:28:39.347Z,3.70
2018-10-18T20:31:07.684Z,3.43
2018-10-18T20:33:35.784Z,3.30
2018-10-18T20:36:03.903Z,3.17
2018-10-18T20:38:32.002Z,4.00
2018-10-18T20:41:00.243Z,3.47
2018-10-18T20:43:28.305Z,3.27
2018-10-18T20:45:56.420Z,3.97
2018-10-18T20:48:24.493Z,3.27
2018-10-18T20:50:52.589Z,3.80
2018-10-18T20:53:20.676Z,3.97
2018-10-18T20:55:48.760Z,3.60
2018-10-18T20:58:16.843Z,3.63
2018-10-18T21:00:44.944Z,3.20
2018-10-18T21:03:13.093Z,3.37
2018-10-18T21:05:41.195Z,3.67
2018-10-18T21:08:09.305Z,3.40
2018-10-18T21:10:37.377Z,3.37
2018-10-18T21:13:05.913Z,3.47
2018-10-18T21:15:33.981Z,3.33
2018-10-18T21:18:02.211Z,3.10
2018-10-18T21:20:30.263Z,2.93
2018-10-18T21:22:58.388Z,3.00
2018-10-18T21:25:26.484Z,3.00
2018-10-18T21:27:54.593Z,3.20
2018-10-18T21:30:22.713Z,3.60
2018-10-18T21:32:50.804Z,2.50
2018-10-18T21:35:18.905Z,2.97
2018-10-18T21:37:47.053Z,3.10
2018-10-18T21:40:15.167Z,3.43
2018-10-18T21:42:43.291Z,3.07
2018-10-18T21:45:11.465Z,2.87
2018-10-18T21:47:39.539Z,3.13
2018-10-18T21:50:07.655Z,2.77
2018-10-18T21:52:35.752Z,2.50
2018-10-18T21:55:03.831Z,2.47
2018-10-18T21:57:31.919Z,3.00
2018-10-18T22:00:00.045Z,2.70
2018-10-18T22:02:28.140Z,2.63
2018-10-18T22:04:56.283Z,2.57
2018-10-18T22:07:24.372Z,2.40
2018-10-18T22:09:52.476Z,2.40
2018-10-18T22:12:20.566Z,2.70
2018-10-18T22:14:48.658Z,2.53
2018-10-18T22:17:16.861Z,2.90
2018-10-18T22:19:44.825Z,2.80
2018-10-18T22:22:12.932Z,2.67
2018-10-18T22:24:41.113Z,2.50
2018-10-18T22:27:09.270Z,2.67
2018-10-18T22:29:37.298Z,2.70
2018-10-18T22:32:05.593Z,2.10
2018-10-18T22:34:33.698Z,2.20
2018-10-18T22:37:01.852Z,1.80
2018-10-18T22:39:29.941Z,2.40
2018-10-18T22:41:58.035Z,2.17
2018-10-18T22:44:26.151Z,2.40
2018-10-18T22:46:54.312Z,2.13
2018-10-18T22:49:22.397Z,2.40
2018-10-18T22:51:50.473Z,2.37
2018-10-18T22:54:18.565Z,2.00
2018-10-18T22:56:46.648Z,2.33
2018-10-18T22:59:14.795Z,2.03
2018-10-18T23:01:42.999Z,2.00
2018-10-18T23:04:11.106Z,1.87
2018-10-18T23:06:39.219Z,2.80
2018-10-18T23:09:08.665Z,2.53
2018-10-18T23:11:36.664Z,2.20
2018-10-18T23:14:05.227Z,1.90
2018-10-18T23:16:33.307Z,1.80
2018-10-18T23:19:01.384Z,1.83
2018-10-18T23:21:29.493Z,2.00
2018-10-18T23:23:57.567Z,2.10
2018-10-18T23:26:25.652Z,2.20
2018-10-18T23:28:53.748Z,1.80
2018-10-18T23:31:21.856Z,1.80
2018-10-18T23:33:49.934Z,1.40
2018-10-18T23:36:18.065Z,1.50
2018-10-18T23:38:46.245Z,1.80
2018-10-18T23:41:14.420Z,1.90
2018-10-18T23:43:42.529Z,2.07
2018-10-18T23:46:10.642Z,2.37
2018-10-18T23:48:38.749Z,1.67
2018-10-18T23:51:07.133Z,1.83
2018-10-18T23:53:35.269Z,2.30
2018-10-18T23:56:03.485Z,1.80
2018-10-18T23:58:31.567Z,2.53
